sensor_id;sensor_type;location;lat;lon;timestamp;temperature;humidity
2893;DHT22;1456;51.840;12.184;2022-10-16T00:01:17;14.50;99.90
2893;DHT22;1456;51.840;12.184;2022-10-16T00:03:44;14.60;99.90
2893;DHT22;1456;51.840;12.184;2022-10-16T00:06:10;14.60;99.90
2893;DHT22;1456;51.840;12.184;2022-10-16T00:08:38;14.70;99.90
2893;DHT22;1456;51.840;12.184;2022-10-16T00:11:12;14.60;99.90
2893;DHT22;1456;51.840;12.184;2022-10-16T00:13:40;14.70;99.90
2893;DHT22;1456;51.840;12.184;2022-10-16T00:16:07;14.70;99.90
2893;DHT22;1456;51.840;12.184;2022-10-16T00:18:33;14.80;99.90
2893;DHT22;1456;51.840;12.184;2022-10-16T00:21:05;14.80;99.90
2893;DHT22;1456;51.840;12.184;2022-10-16T00:23:32;14.60;99.90
2893;DHT22;1456;51.840;12.184;2022-10-16T00:26:00;14.50;99.90
2893;DHT22;1456;51.840;12.184;2022-10-16T00:28:26;14.50;99.90
2893;DHT22;1456;51.840;12.184;2022-10-16T00:30:53;14.60;99.90
2893;DHT22;1456;51.840;12.184;2022-10-16T00:33:19;14.60;99.90
2893;DHT22;1456;51.840;12.184;2022-10-16T00:35:45;14.60;99.90
2893;DHT22;1456;51.840;12.184;2022-10-16T00:38:11;14.80;99.90
2893;DHT22;1456;51.840;12.184;2022-10-16T00:40:37;14.90;99.90
2893;DHT22;1456;51.840;12.184;2022-10-16T00:43:02;15.10;99.90
2893;DHT22;1456;51.840;12.184;2022-10-16T00:45:30;15.20;99.90
2893;DHT22;1456;51.840;12.184;2022-10-16T00:47:56;15.40;99.90
2893;DHT22;1456;51.840;12.184;2022-10-16T00:50:23;15.50;99.90
2893;DHT22;1456;51.840;12.184;2022-10-16T00:52:50;15.60;99.90
2893;DHT22;1456;51.840;12.184;2022-10-16T00:55:16;15.80;99.90
2893;DHT22;1456;51.840;12.184;2022-10-16T00:57:43;15.90;99.90
2893;DHT22;1456;51.840;12.184;2022-10-16T01:00:11;15.90;99.90
2893;DHT22;1456;51.840;12.184;2022-10-16T01:02:38;16.10;99.90
2893;DHT22;1456;51.840;12.184;2022-10-16T01:05:04;16.20;99.90
2893;DHT22;1456;51.840;12.184;2022-10-16T01:13:09;16.30;99.90
2893;DHT22;1456;51.840;12.184;2022-10-16T01:18:35;16.30;99.90
2893;DHT22;1456;51.840;12.184;2022-10-16T01:21:26;16.30;99.90
2893;DHT22;1456;51.840;12.184;2022-10-16T01:24:06;16.20;99.90
2893;DHT22;1456;51.840;12.184;2022-10-16T01:29:41;16.00;99.90
2893;DHT22;1456;51.840;12.184;2022-10-16T01:32:35;16.00;99.90
2893;DHT22;1456;51.840;12.184;2022-10-16T01:35:07;16.10;99.90
2893;DHT22;1456;51.840;12.184;2022-10-16T01:37:45;16.00;99.90
2893;DHT22;1456;51.840;12.184;2022-10-16T01:40:13;16.00;99.90
2893;DHT22;1456;51.840;12.184;2022-10-16T01:42:55;16.00;99.90
2893;DHT22;1456;51.840;12.184;2022-10-16T01:45:22;16.10;99.90
2893;DHT22;1456;51.840;12.184;2022-10-16T01:47:48;16.00;99.90
2893;DHT22;1456;51.840;12.184;2022-10-16T01:50:16;16.00;99.90
2893;DHT22;1456;51.840;12.184;2022-10-16T01:52:45;16.00;99.90
2893;DHT22;1456;51.840;12.184;2022-10-16T01:55:16;16.00;99.90
2893;DHT22;1456;51.840;12.184;2022-10-16T01:57:46;16.00;99.90
2893;DHT22;1456;51.840;12.184;2022-10-16T02:00:15;16.00;99.90
2893;DHT22;1456;51.840;12.184;2022-10-16T02:02:46;15.80;99.90
2893;DHT22;1456;51.840;12.184;2022-10-16T02:07:47;15.60;99.90
2893;DHT22;1456;51.840;12.184;2022-10-16T02:10:13;15.50;99.90
2893;DHT22;1456;51.840;12.184;2022-10-16T02:12:43;15.40;99.90
2893;DHT22;1456;51.840;12.184;2022-10-16T02:15:11;15.30;99.90
2893;DHT22;1456;51.840;12.184;2022-10-16T02:17:36;15.20;99.90
2893;DHT22;1456;51.840;12.184;2022-10-16T02:20:04;15.20;99.90
2893;DHT22;1456;51.840;12.184;2022-10-16T02:22:35;15.20;99.90
2893;DHT22;1456;51.840;12.184;2022-10-16T02:25:24;15.20;99.90
2893;DHT22;1456;51.840;12.184;2022-10-16T02:28:04;15.30;99.90
2893;DHT22;1456;51.840;12.184;2022-10-16T02:30:49;15.40;99.90
2893;DHT22;1456;51.840;12.184;2022-10-16T02:33:17;15.40;99.90
2893;DHT22;1456;51.840;12.184;2022-10-16T02:35:46;15.40;99.90
2893;DHT22;1456;51.840;12.184;2022-10-16T02:38:14;15.30;99.90
2893;DHT22;1456;51.840;12.184;2022-10-16T02:40:40;15.20;99.90
2893;DHT22;1456;51.840;12.184;2022-10-16T02:43:06;15.10;99.90
2893;DHT22;1456;51.840;12.184;2022-10-16T02:45:32;15.10;99.90
2893;DHT22;1456;51.840;12.184;2022-10-16T02:47:58;15.00;99.90
2893;DHT22;1456;51.840;12.184;2022-10-16T02:50:24;14.90;99.90
2893;DHT22;1456;51.840;12.184;2022-10-16T02:52:50;14.80;99.90
2893;DHT22;1456;51.840;12.184;2022-10-16T02:55:16;14.70;99.90
2893;DHT22;1456;51.840;12.184;2022-10-16T02:57:42;14.60;99.90
2893;DHT22;1456;51.840;12.184;2022-10-16T03:00:09;14.60;99.90
2893;DHT22;1456;51.840;12.184;2022-10-16T03:02:37;14.60;99.90
2893;DHT22;1456;51.840;12.184;2022-10-16T03:05:03;14.70;99.90
2893;DHT22;1456;51.840;12.184;2022-10-16T03:07:28;14.80;99.90
2893;DHT22;1456;51.840;12.184;2022-10-16T03:09:54;14.90;99.90
2893;DHT22;1456;51.840;12.184;2022-10-16T03:12:21;15.00;99.90
2893;DHT22;1456;51.840;12.184;2022-10-16T03:14:47;15.00;99.90
2893;DHT22;1456;51.840;12.184;2022-10-16T03:17:13;15.00;99.90
2893;DHT22;1456;51.840;12.184;2022-10-16T03:19:39;15.10;99.90
2893;DHT22;1456;51.840;12.184;2022-10-16T03:22:05;15.10;99.90
2893;DHT22;1456;51.840;12.184;2022-10-16T03:24:31;15.20;99.90
2893;DHT22;1456;51.840;12.184;2022-10-16T03:26:56;15.10;99.90
2893;DHT22;1456;51.840;12.184;2022-10-16T03:29:22;15.00;99.90
2893;DHT22;1456;51.840;12.184;2022-10-16T03:31:48;15.00;99.90
2893;DHT22;1456;51.840;12.184;2022-10-16T03:34:15;15.00;99.90
2893;DHT22;1456;51.840;12.184;2022-10-16T03:36:40;15.00;99.90
2893;DHT22;1456;51.840;12.184;2022-10-16T03:39:06;15.00;99.90
2893;DHT22;1456;51.840;12.184;2022-10-16T03:41:32;14.90;99.90
2893;DHT22;1456;51.840;12.184;2022-10-16T03:43:57;14.80;99.90
2893;DHT22;1456;51.840;12.184;2022-10-16T03:46:23;14.70;99.90
2893;DHT22;1456;51.840;12.184;2022-10-16T03:48:49;14.70;99.90
2893;DHT22;1456;51.840;12.184;2022-10-16T03:51:15;14.60;99.90
2893;DHT22;1456;51.840;12.184;2022-10-16T03:53:40;14.50;99.90
2893;DHT22;1456;51.840;12.184;2022-10-16T03:56:06;14.40;99.90
2893;DHT22;1456;51.840;12.184;2022-10-16T03:58:32;14.40;99.90
2893;DHT22;1456;51.840;12.184;2022-10-16T04:00:57;14.50;99.90
2893;DHT22;1456;51.840;12.184;2022-10-16T04:03:23;14.50;99.90
2893;DHT22;1456;51.840;12.184;2022-10-16T04:05:49;14.60;99.90
2893;DHT22;1456;51.840;12.184;2022-10-16T04:08:15;14.60;99.90
2893;DHT22;1456;51.840;12.184;2022-10-16T04:10:42;14.60;99.90
2893;DHT22;1456;51.840;12.184;2022-10-16T04:13:09;14.60;99.90
2893;DHT22;1456;51.840;12.184;2022-10-16T04:15:35;14.50;99.90
2893;DHT22;1456;51.840;12.184;2022-10-16T04:18:00;14.50;99.90
2893;DHT22;1456;51.840;12.184;2022-10-16T04:20:26;14.50;99.90
2893;DHT22;1456;51.840;12.184;2022-10-16T04:22:53;14.40;99.90
2893;DHT22;1456;51.840;12.184;2022-10-16T04:25:18;14.40;99.90
2893;DHT22;1456;51.840;12.184;2022-10-16T04:27:44;14.40;99.90
2893;DHT22;1456;51.840;12.184;2022-10-16T04:30:10;14.30;99.90
2893;DHT22;1456;51.840;12.184;2022-10-16T04:32:36;14.40;99.90
2893;DHT22;1456;51.840;12.184;2022-10-16T04:35:01;14.40;99.90
2893;DHT22;1456;51.840;12.184;2022-10-16T04:37:28;14.50;99.90
2893;DHT22;1456;51.840;12.184;2022-10-16T04:39:54;14.50;99.90
2893;DHT22;1456;51.840;12.184;2022-10-16T04:42:20;14.60;99.90
2893;DHT22;1456;51.840;12.184;2022-10-16T04:44:46;14.70;99.90
2893;DHT22;1456;51.840;12.184;2022-10-16T04:47:12;14.70;99.90
2893;DHT22;1456;51.840;12.184;2022-10-16T04:49:38;14.70;99.90
2893;DHT22;1456;51.840;12.184;2022-10-16T04:52:04;14.80;99.90
2893;DHT22;1456;51.840;12.184;2022-10-16T04:54:30;14.80;99.90
2893;DHT22;1456;51.840;12.184;2022-10-16T04:56:55;14.70;99.90
2893;DHT22;1456;51.840;12.184;2022-10-16T04:59:22;14.70;99.90
2893;DHT22;1456;51.840;12.184;2022-10-16T05:01:48;14.80;99.90
2893;DHT22;1456;51.840;12.184;2022-10-16T05:04:14;14.80;99.90
2893;DHT22;1456;51.840;12.184;2022-10-16T05:06:41;14.80;99.90
2893;DHT22;1456;51.840;12.184;2022-10-16T05:09:07;14.80;99.90
2893;DHT22;1456;51.840;12.184;2022-10-16T05:11:33;14.90;99.90
2893;DHT22;1456;51.840;12.184;2022-10-16T05:14:00;14.90;99.90
2893;DHT22;1456;51.840;12.184;2022-10-16T05:16:26;14.90;99.90
2893;DHT22;1456;51.840;12.184;2022-10-16T05:18:53;14.80;99.90
2893;DHT22;1456;51.840;12.184;2022-10-16T05:21:19;14.70;99.90
2893;DHT22;1456;51.840;12.184;2022-10-16T05:23:45;14.60;99.90
2893;DHT22;1456;51.840;12.184;2022-10-16T05:26:11;14.40;99.90
2893;DHT22;1456;51.840;12.184;2022-10-16T05:28:36;14.50;99.90
2893;DHT22;1456;51.840;12.184;2022-10-16T05:31:06;14.40;99.90
2893;DHT22;1456;51.840;12.184;2022-10-16T05:33:32;14.30;99.90
2893;DHT22;1456;51.840;12.184;2022-10-16T05:36:05;14.30;99.90
2893;DHT22;1456;51.840;12.184;2022-10-16T05:38:31;14.20;99.90
2893;DHT22;1456;51.840;12.184;2022-10-16T05:40:57;14.20;99.90
2893;DHT22;1456;51.840;12.184;2022-10-16T05:43:23;14.20;99.90
2893;DHT22;1456;51.840;12.184;2022-10-16T05:46:05;14.30;99.90
2893;DHT22;1456;51.840;12.184;2022-10-16T05:48:32;14.30;99.90
2893;DHT22;1456;51.840;12.184;2022-10-16T05:51:00;14.30;99.90
2893;DHT22;1456;51.840;12.184;2022-10-16T05:53:30;14.30;99.90
2893;DHT22;1456;51.840;12.184;2022-10-16T05:55:57;14.20;99.90
2893;DHT22;1456;51.840;12.184;2022-10-16T05:58:23;14.20;99.90
2893;DHT22;1456;51.840;12.184;2022-10-16T06:01:04;14.20;99.90
2893;DHT22;1456;51.840;12.184;2022-10-16T06:03:30;14.20;99.90
2893;DHT22;1456;51.840;12.184;2022-10-16T06:05:56;14.20;99.90
2893;DHT22;1456;51.840;12.184;2022-10-16T06:08:22;14.20;99.90
2893;DHT22;1456;51.840;12.184;2022-10-16T06:10:49;14.10;99.90
2893;DHT22;1456;51.840;12.184;2022-10-16T06:13:15;14.10;99.90
2893;DHT22;1456;51.840;12.184;2022-10-16T06:15:42;14.10;99.90
2893;DHT22;1456;51.840;12.184;2022-10-16T06:18:08;14.10;99.90
2893;DHT22;1456;51.840;12.184;2022-10-16T06:20:35;14.20;99.90
2893;DHT22;1456;51.840;12.184;2022-10-16T06:23:01;14.20;99.90
2893;DHT22;1456;51.840;12.184;2022-10-16T06:25:27;14.20;99.90
2893;DHT22;1456;51.840;12.184;2022-10-16T06:27:53;14.40;99.90
2893;DHT22;1456;51.840;12.184;2022-10-16T06:30:18;14.50;99.90
2893;DHT22;1456;51.840;12.184;2022-10-16T06:32:44;14.50;99.90
2893;DHT22;1456;51.840;12.184;2022-10-16T06:35:10;14.60;99.90
2893;DHT22;1456;51.840;12.184;2022-10-16T06:37:35;14.70;99.90
2893;DHT22;1456;51.840;12.184;2022-10-16T06:40:01;14.80;99.90
2893;DHT22;1456;51.840;12.184;2022-10-16T06:42:29;14.90;99.90
2893;DHT22;1456;51.840;12.184;2022-10-16T06:44:55;15.10;99.90
2893;DHT22;1456;51.840;12.184;2022-10-16T06:47:21;15.30;99.90
2893;DHT22;1456;51.840;12.184;2022-10-16T06:49:46;15.40;99.90
2893;DHT22;1456;51.840;12.184;2022-10-16T06:52:12;15.50;99.90
2893;DHT22;1456;51.840;12.184;2022-10-16T06:54:38;15.50;99.90
2893;DHT22;1456;51.840;12.184;2022-10-16T06:57:03;15.70;99.90
2893;DHT22;1456;51.840;12.184;2022-10-16T06:59:30;15.80;99.90
2893;DHT22;1456;51.840;12.184;2022-10-16T07:01:56;15.90;99.90
2893;DHT22;1456;51.840;12.184;2022-10-16T07:04:21;16.10;99.90
2893;DHT22;1456;51.840;12.184;2022-10-16T07:06:47;16.10;99.90
2893;DHT22;1456;51.840;12.184;2022-10-16T07:09:12;16.10;99.90
2893;DHT22;1456;51.840;12.184;2022-10-16T07:11:39;16.10;99.90
2893;DHT22;1456;51.840;12.184;2022-10-16T07:14:16;16.30;99.90
2893;DHT22;1456;51.840;12.184;2022-10-16T07:16:42;16.40;99.90
2893;DHT22;1456;51.840;12.184;2022-10-16T07:19:08;16.50;99.90
2893;DHT22;1456;51.840;12.184;2022-10-16T07:21:35;16.60;99.90
2893;DHT22;1456;51.840;12.184;2022-10-16T07:24:02;16.70;99.90
2893;DHT22;1456;51.840;12.184;2022-10-16T07:26:33;16.70;99.90
2893;DHT22;1456;51.840;12.184;2022-10-16T07:29:01;16.70;99.90
2893;DHT22;1456;51.840;12.184;2022-10-16T07:31:28;16.80;99.90
2893;DHT22;1456;51.840;12.184;2022-10-16T07:33:54;16.70;99.90
2893;DHT22;1456;51.840;12.184;2022-10-16T07:36:20;16.60;99.90
2893;DHT22;1456;51.840;12.184;2022-10-16T07:38:48;16.40;99.90
2893;DHT22;1456;51.840;12.184;2022-10-16T07:41:18;16.20;99.90
2893;DHT22;1456;51.840;12.184;2022-10-16T07:43:52;16.10;99.90
2893;DHT22;1456;51.840;12.184;2022-10-16T07:46:20;16.20;99.90
2893;DHT22;1456;51.840;12.184;2022-10-16T07:48:47;16.40;99.90
2893;DHT22;1456;51.840;12.184;2022-10-16T07:51:15;16.60;99.90
2893;DHT22;1456;51.840;12.184;2022-10-16T07:53:47;16.80;99.90
2893;DHT22;1456;51.840;12.184;2022-10-16T07:56:13;17.00;99.90
2893;DHT22;1456;51.840;12.184;2022-10-16T07:58:40;17.10;99.90
2893;DHT22;1456;51.840;12.184;2022-10-16T08:01:13;17.20;99.90
2893;DHT22;1456;51.840;12.184;2022-10-16T08:03:43;17.30;99.90
2893;DHT22;1456;51.840;12.184;2022-10-16T08:06:08;17.50;99.90
2893;DHT22;1456;51.840;12.184;2022-10-16T08:08:39;17.50;99.90
2893;DHT22;1456;51.840;12.184;2022-10-16T08:11:05;17.60;99.90
2893;DHT22;1456;51.840;12.184;2022-10-16T08:13:32;17.80;99.90
2893;DHT22;1456;51.840;12.184;2022-10-16T08:15:59;18.00;99.90
2893;DHT22;1456;51.840;12.184;2022-10-16T08:18:25;18.00;99.90
2893;DHT22;1456;51.840;12.184;2022-10-16T08:21:01;17.80;99.90
2893;DHT22;1456;51.840;12.184;2022-10-16T08:23:28;17.90;99.90
2893;DHT22;1456;51.840;12.184;2022-10-16T08:25:56;17.90;99.90
2893;DHT22;1456;51.840;12.184;2022-10-16T08:28:29;18.00;99.90
2893;DHT22;1456;51.840;12.184;2022-10-16T08:31:11;18.00;99.90
2893;DHT22;1456;51.840;12.184;2022-10-16T08:33:38;18.00;99.90
2893;DHT22;1456;51.840;12.184;2022-10-16T08:36:05;18.00;99.90
2893;DHT22;1456;51.840;12.184;2022-10-16T08:38:35;18.00;99.90
2893;DHT22;1456;51.840;12.184;2022-10-16T08:49:29;18.40;99.90
2893;DHT22;1456;51.840;12.184;2022-10-16T08:52:03;18.40;99.90
2893;DHT22;1456;51.840;12.184;2022-10-16T08:54:43;18.40;99.90
2893;DHT22;1456;51.840;12.184;2022-10-16T08:57:19;18.50;99.90
2893;DHT22;1456;51.840;12.184;2022-10-16T08:59:45;18.70;99.90
2893;DHT22;1456;51.840;12.184;2022-10-16T09:02:35;18.90;99.90
2893;DHT22;1456;51.840;12.184;2022-10-16T09:14:12;19.00;99.90
2893;DHT22;1456;51.840;12.184;2022-10-16T09:21:48;19.60;99.90
2893;DHT22;1456;51.840;12.184;2022-10-16T09:24:26;19.80;99.90
2893;DHT22;1456;51.840;12.184;2022-10-16T09:26:53;20.00;99.90
2893;DHT22;1456;51.840;12.184;2022-10-16T09:29:20;20.40;99.90
2893;DHT22;1456;51.840;12.184;2022-10-16T09:31:47;20.80;99.90
2893;DHT22;1456;51.840;12.184;2022-10-16T09:34:33;20.80;99.90
2893;DHT22;1456;51.840;12.184;2022-10-16T09:37:09;21.10;99.90
2893;DHT22;1456;51.840;12.184;2022-10-16T09:39:51;21.20;99.90
2893;DHT22;1456;51.840;12.184;2022-10-16T09:42:21;20.50;99.90
2893;DHT22;1456;51.840;12.184;2022-10-16T09:44:52;20.00;99.90
2893;DHT22;1456;51.840;12.184;2022-10-16T09:47:22;20.00;99.90
2893;DHT22;1456;51.840;12.184;2022-10-16T09:52:19;20.30;99.90
2893;DHT22;1456;51.840;12.184;2022-10-16T09:55:02;20.60;99.90
2893;DHT22;1456;51.840;12.184;2022-10-16T09:57:28;21.00;99.90
2893;DHT22;1456;51.840;12.184;2022-10-16T09:59:57;21.00;99.90
2893;DHT22;1456;51.840;12.184;2022-10-16T10:02:29;21.00;99.90
2893;DHT22;1456;51.840;12.184;2022-10-16T10:04:56;21.20;99.90
2893;DHT22;1456;51.840;12.184;2022-10-16T10:07:33;21.50;99.90
2893;DHT22;1456;51.840;12.184;2022-10-16T10:10:03;21.50;99.90
2893;DHT22;1456;51.840;12.184;2022-10-16T10:12:33;21.60;99.90
2893;DHT22;1456;51.840;12.184;2022-10-16T10:15:21;21.30;99.90
2893;DHT22;1456;51.840;12.184;2022-10-16T10:17:55;21.00;99.90
2893;DHT22;1456;51.840;12.184;2022-10-16T10:20:27;20.80;99.90
2893;DHT22;1456;51.840;12.184;2022-10-16T10:22:54;20.40;99.90
2893;DHT22;1456;51.840;12.184;2022-10-16T10:28:34;21.20;99.90
2893;DHT22;1456;51.840;12.184;2022-10-16T10:31:34;21.80;99.90
2893;DHT22;1456;51.840;12.184;2022-10-16T10:45:54;22.70;99.90
2893;DHT22;1456;51.840;12.184;2022-10-16T10:51:05;22.70;99.90
2893;DHT22;1456;51.840;12.184;2022-10-16T10:53:56;21.80;99.90
2893;DHT22;1456;51.840;12.184;2022-10-16T11:02:15;20.00;99.90
2893;DHT22;1456;51.840;12.184;2022-10-16T11:07:54;19.60;99.90
2893;DHT22;1456;51.840;12.184;2022-10-16T11:10:58;19.50;99.90
2893;DHT22;1456;51.840;12.184;2022-10-16T11:13:40;19.80;99.90
2893;DHT22;1456;51.840;12.184;2022-10-16T11:16:26;21.00;99.90
2893;DHT22;1456;51.840;12.184;2022-10-16T11:21:55;23.50;99.10
2893;DHT22;1456;51.840;12.184;2022-10-16T11:27:12;25.10;96.60
2893;DHT22;1456;51.840;12.184;2022-10-16T11:29:53;24.70;97.10
2893;DHT22;1456;51.840;12.184;2022-10-16T11:32:33;24.40;98.90
2893;DHT22;1456;51.840;12.184;2022-10-16T11:35:23;25.20;96.00
2893;DHT22;1456;51.840;12.184;2022-10-16T11:37:53;26.00;94.70
2893;DHT22;1456;51.840;12.184;2022-10-16T11:40:32;26.70;95.60
2893;DHT22;1456;51.840;12.184;2022-10-16T11:50:48;26.50;93.90
2893;DHT22;1456;51.840;12.184;2022-10-16T11:53:45;26.20;93.30
2893;DHT22;1456;51.840;12.184;2022-10-16T11:56:17;24.90;93.50
2893;DHT22;1456;51.840;12.184;2022-10-16T11:58:48;24.70;94.10
2893;DHT22;1456;51.840;12.184;2022-10-16T12:01:41;25.50;93.90
2893;DHT22;1456;51.840;12.184;2022-10-16T12:06:57;24.70;93.90
2893;DHT22;1456;51.840;12.184;2022-10-16T12:09:26;24.10;94.50
2893;DHT22;1456;51.840;12.184;2022-10-16T12:11:53;22.70;95.20
2893;DHT22;1456;51.840;12.184;2022-10-16T12:14:32;21.80;97.10
2893;DHT22;1456;51.840;12.184;2022-10-16T12:17:22;21.10;98.70
2893;DHT22;1456;51.840;12.184;2022-10-16T12:20:18;20.60;99.80
2893;DHT22;1456;51.840;12.184;2022-10-16T12:22:58;20.30;99.90
2893;DHT22;1456;51.840;12.184;2022-10-16T12:25:32;21.10;99.90
2893;DHT22;1456;51.840;12.184;2022-10-16T12:28:20;22.50;99.80
2893;DHT22;1456;51.840;12.184;2022-10-16T12:31:01;23.90;97.20
2893;DHT22;1456;51.840;12.184;2022-10-16T12:33:30;25.10;94.70
2893;DHT22;1456;51.840;12.184;2022-10-16T12:35:58;25.00;93.90
2893;DHT22;1456;51.840;12.184;2022-10-16T12:38:46;25.20;93.40
2893;DHT22;1456;51.840;12.184;2022-10-16T12:41:25;25.00;93.60
2893;DHT22;1456;51.840;12.184;2022-10-16T12:43:51;25.70;94.10
2893;DHT22;1456;51.840;12.184;2022-10-16T12:48:43;26.50;92.60
2893;DHT22;1456;51.840;12.184;2022-10-16T12:54:36;27.20;92.60
2893;DHT22;1456;51.840;12.184;2022-10-16T13:00:13;29.20;86.30
2893;DHT22;1456;51.840;12.184;2022-10-16T13:11:19;30.20;85.50
2893;DHT22;1456;51.840;12.184;2022-10-16T13:16:51;29.10;82.60
2893;DHT22;1456;51.840;12.184;2022-10-16T13:22:11;27.80;82.50
2893;DHT22;1456;51.840;12.184;2022-10-16T13:30:23;25.80;88.80
2893;DHT22;1456;51.840;12.184;2022-10-16T13:33:00;25.80;90.10
2893;DHT22;1456;51.840;12.184;2022-10-16T13:35:29;25.10;86.90
2893;DHT22;1456;51.840;12.184;2022-10-16T13:38:17;25.10;91.60
2893;DHT22;1456;51.840;12.184;2022-10-16T13:41:17;26.10;90.30
2893;DHT22;1456;51.840;12.184;2022-10-16T13:43:46;27.10;86.80
2893;DHT22;1456;51.840;12.184;2022-10-16T13:46:19;26.20;90.80
2893;DHT22;1456;51.840;12.184;2022-10-16T13:48:57;26.50;91.00
2893;DHT22;1456;51.840;12.184;2022-10-16T13:51:22;28.30;87.30
2893;DHT22;1456;51.840;12.184;2022-10-16T13:53:48;29.50;81.90
2893;DHT22;1456;51.840;12.184;2022-10-16T13:56:18;30.50;84.50
2893;DHT22;1456;51.840;12.184;2022-10-16T13:58:44;32.10;79.60
2893;DHT22;1456;51.840;12.184;2022-10-16T14:01:19;33.20;74.80
2893;DHT22;1456;51.840;12.184;2022-10-16T14:03:46;34.10;72.70
2893;DHT22;1456;51.840;12.184;2022-10-16T14:06:20;34.80;64.80
2893;DHT22;1456;51.840;12.184;2022-10-16T14:08:55;34.30;63.00
2893;DHT22;1456;51.840;12.184;2022-10-16T14:11:23;33.60;62.80
2893;DHT22;1456;51.840;12.184;2022-10-16T14:13:50;33.80;61.30
2893;DHT22;1456;51.840;12.184;2022-10-16T14:16:18;33.50;61.60
2893;DHT22;1456;51.840;12.184;2022-10-16T14:19:01;33.30;63.10
2893;DHT22;1456;51.840;12.184;2022-10-16T14:21:28;33.20;62.50
2893;DHT22;1456;51.840;12.184;2022-10-16T14:23:54;32.60;65.60
2893;DHT22;1456;51.840;12.184;2022-10-16T14:26:23;32.90;62.50
2893;DHT22;1456;51.840;12.184;2022-10-16T14:29:00;33.20;61.20
2893;DHT22;1456;51.840;12.184;2022-10-16T14:31:33;33.60;63.80
2893;DHT22;1456;51.840;12.184;2022-10-16T14:34:01;34.50;60.90
2893;DHT22;1456;51.840;12.184;2022-10-16T14:36:27;35.30;58.60
2893;DHT22;1456;51.840;12.184;2022-10-16T14:41:26;35.30;59.30
2893;DHT22;1456;51.840;12.184;2022-10-16T14:43:54;35.40;58.70
2893;DHT22;1456;51.840;12.184;2022-10-16T14:46:27;35.90;57.00
2893;DHT22;1456;51.840;12.184;2022-10-16T14:49:19;36.50;56.60
2893;DHT22;1456;51.840;12.184;2022-10-16T14:51:45;35.60;55.40
2893;DHT22;1456;51.840;12.184;2022-10-16T14:54:16;33.80;58.30
2893;DHT22;1456;51.840;12.184;2022-10-16T14:56:43;32.20;58.80
2893;DHT22;1456;51.840;12.184;2022-10-16T15:01:56;29.60;61.80
2893;DHT22;1456;51.840;12.184;2022-10-16T15:04:22;28.00;66.00
2893;DHT22;1456;51.840;12.184;2022-10-16T15:06:48;26.80;67.30
2893;DHT22;1456;51.840;12.184;2022-10-16T15:09:14;25.90;75.30
2893;DHT22;1456;51.840;12.184;2022-10-16T15:11:41;25.00;71.30
2893;DHT22;1456;51.840;12.184;2022-10-16T15:14:11;24.30;80.60
2893;DHT22;1456;51.840;12.184;2022-10-16T15:16:37;23.80;84.60
2893;DHT22;1456;51.840;12.184;2022-10-16T15:19:03;23.30;83.50
2893;DHT22;1456;51.840;12.184;2022-10-16T15:21:32;23.00;90.80
2893;DHT22;1456;51.840;12.184;2022-10-16T15:23:58;22.60;91.20
2893;DHT22;1456;51.840;12.184;2022-10-16T15:26:28;22.30;91.80
2893;DHT22;1456;51.840;12.184;2022-10-16T15:28:54;22.10;92.80
2893;DHT22;1456;51.840;12.184;2022-10-16T15:31:21;21.90;93.70
2893;DHT22;1456;51.840;12.184;2022-10-16T15:33:50;21.70;93.80
2893;DHT22;1456;51.840;12.184;2022-10-16T15:36:26;21.50;94.80
2893;DHT22;1456;51.840;12.184;2022-10-16T15:38:52;21.30;96.10
2893;DHT22;1456;51.840;12.184;2022-10-16T15:41:18;21.00;96.40
2893;DHT22;1456;51.840;12.184;2022-10-16T15:43:44;20.90;97.90
2893;DHT22;1456;51.840;12.184;2022-10-16T15:46:11;20.80;98.30
2893;DHT22;1456;51.840;12.184;2022-10-16T15:48:39;20.70;98.90
2893;DHT22;1456;51.840;12.184;2022-10-16T15:51:06;20.50;99.00
2893;DHT22;1456;51.840;12.184;2022-10-16T15:53:33;20.40;99.40
2893;DHT22;1456;51.840;12.184;2022-10-16T15:56:04;20.30;99.80
2893;DHT22;1456;51.840;12.184;2022-10-16T15:58:29;20.10;99.90
2893;DHT22;1456;51.840;12.184;2022-10-16T16:00:56;20.00;99.90
2893;DHT22;1456;51.840;12.184;2022-10-16T16:03:23;19.80;99.90
2893;DHT22;1456;51.840;12.184;2022-10-16T16:05:49;19.70;99.90
2893;DHT22;1456;51.840;12.184;2022-10-16T16:08:14;19.50;99.90
2893;DHT22;1456;51.840;12.184;2022-10-16T16:10:40;19.30;99.90
2893;DHT22;1456;51.840;12.184;2022-10-16T16:13:06;19.20;99.90
2893;DHT22;1456;51.840;12.184;2022-10-16T16:15:32;19.20;99.90
2893;DHT22;1456;51.840;12.184;2022-10-16T16:17:58;19.00;99.90
2893;DHT22;1456;51.840;12.184;2022-10-16T16:20:23;18.80;99.90
2893;DHT22;1456;51.840;12.184;2022-10-16T16:22:49;18.70;99.90
2893;DHT22;1456;51.840;12.184;2022-10-16T16:25:15;18.60;99.90
2893;DHT22;1456;51.840;12.184;2022-10-16T16:27:42;18.40;99.90
2893;DHT22;1456;51.840;12.184;2022-10-16T16:30:11;18.30;99.90
2893;DHT22;1456;51.840;12.184;2022-10-16T16:32:36;18.20;99.90
2893;DHT22;1456;51.840;12.184;2022-10-16T16:35:03;18.00;99.90
2893;DHT22;1456;51.840;12.184;2022-10-16T16:37:31;17.90;99.90
2893;DHT22;1456;51.840;12.184;2022-10-16T16:39:57;17.70;99.90
2893;DHT22;1456;51.840;12.184;2022-10-16T16:42:26;17.60;99.90
2893;DHT22;1456;51.840;12.184;2022-10-16T16:44:54;17.40;99.90
2893;DHT22;1456;51.840;12.184;2022-10-16T16:47:19;17.30;99.90
2893;DHT22;1456;51.840;12.184;2022-10-16T16:49:46;17.20;99.90
2893;DHT22;1456;51.840;12.184;2022-10-16T16:52:13;17.10;99.90
2893;DHT22;1456;51.840;12.184;2022-10-16T16:54:39;17.00;99.90
2893;DHT22;1456;51.840;12.184;2022-10-16T16:57:04;17.00;99.90
2893;DHT22;1456;51.840;12.184;2022-10-16T16:59:30;16.90;99.90
2893;DHT22;1456;51.840;12.184;2022-10-16T17:01:58;16.80;99.90
2893;DHT22;1456;51.840;12.184;2022-10-16T17:04:26;16.80;99.90
2893;DHT22;1456;51.840;12.184;2022-10-16T17:06:53;16.70;99.90
2893;DHT22;1456;51.840;12.184;2022-10-16T17:09:21;16.60;99.90
2893;DHT22;1456;51.840;12.184;2022-10-16T17:11:47;16.50;99.90
2893;DHT22;1456;51.840;12.184;2022-10-16T17:14:14;16.50;99.90
2893;DHT22;1456;51.840;12.184;2022-10-16T17:16:40;16.40;99.90
2893;DHT22;1456;51.840;12.184;2022-10-16T17:19:14;16.30;99.90
2893;DHT22;1456;51.840;12.184;2022-10-16T17:21:42;16.10;99.90
2893;DHT22;1456;51.840;12.184;2022-10-16T17:24:07;15.90;99.90
2893;DHT22;1456;51.840;12.184;2022-10-16T17:26:37;15.70;99.90
2893;DHT22;1456;51.840;12.184;2022-10-16T17:29:04;15.60;99.90
2893;DHT22;1456;51.840;12.184;2022-10-16T17:31:33;15.50;99.90
2893;DHT22;1456;51.840;12.184;2022-10-16T17:34:00;15.50;99.90
2893;DHT22;1456;51.840;12.184;2022-10-16T17:36:29;15.50;99.90
2893;DHT22;1456;51.840;12.184;2022-10-16T17:38:58;15.40;99.90
2893;DHT22;1456;51.840;12.184;2022-10-16T17:41:27;15.20;99.90
2893;DHT22;1456;51.840;12.184;2022-10-16T17:43:53;15.20;99.90
2893;DHT22;1456;51.840;12.184;2022-10-16T17:46:21;15.10;99.90
2893;DHT22;1456;51.840;12.184;2022-10-16T17:48:49;15.10;99.90
2893;DHT22;1456;51.840;12.184;2022-10-16T17:51:20;15.10;99.90
2893;DHT22;1456;51.840;12.184;2022-10-16T17:53:55;15.10;99.90
2893;DHT22;1456;51.840;12.184;2022-10-16T17:56:22;15.10;99.90